createdAt,value
2019-04-21T00:00:39.846Z,9.00
2019-04-21T00:03:50.117Z,9.00
2019-04-21T00:07:08.691Z,8.90
2019-04-21T00:10:18.468Z,8.90
2019-04-21T00:13:20.485Z,8.80
2019-04-21T00:16:12.012Z,8.80
2019-04-21T00:19:40.518Z,8.70
2019-04-21T00:22:58.782Z,8.70
2019-04-21T00:26:01.983Z,8.70
2019-04-21T00:29:16.578Z,8.70
2019-04-21T00:32:17.935Z,8.60
2019-04-21T00:35:14.038Z,8.60
2019-04-21T00:38:43.718Z,8.60
2019-04-21T00:41:46.470Z,8.50
2019-04-21T00:44:40.075Z,8.50
2019-04-21T00:47:53.142Z,8.50
2019-04-21T00:51:16.936Z,8.50
2019-04-21T00:54:13.420Z,8.50
2019-04-21T00:57:18.035Z,8.50
2019-04-21T01:00:22.897Z,8.50
2019-04-21T01:03:46.240Z,8.50
2019-04-21T01:06:35.300Z,8.50
2019-04-21T01:09:31.685Z,8.60
2019-04-21T01:13:04.381Z,8.60
2019-04-21T01:15:53.046Z,8.50
2019-04-21T01:18:55.259Z,8.60
2019-04-21T01:21:41.146Z,8.50
2019-04-21T01:24:49.100Z,8.40
2019-04-21T01:28:09.950Z,8.40
2019-04-21T01:31:17.422Z,8.40
2019-04-21T01:34:27.083Z,8.40
2019-04-21T01:37:38.502Z,8.30
2019-04-21T01:40:38.112Z,8.30
2019-04-21T01:43:42.757Z,8.20
2019-04-21T01:46:48.057Z,8.20
2019-04-21T01:49:43.129Z,8.20
2019-04-21T01:53:05.260Z,8.10
2019-04-21T01:56:34.699Z,8.10
2019-04-21T01:59:35.250Z,8.00
2019-04-21T02:02:43.674Z,8.00
2019-04-21T02:06:02.726Z,8.00
2019-04-21T02:09:02.140Z,8.00
2019-04-21T02:12:10.593Z,7.90
2019-04-21T02:15:20.269Z,7.90
2019-04-21T02:18:17.076Z,7.80
2019-04-21T02:21:17.829Z,7.80
2019-04-21T02:24:40.007Z,7.80
2019-04-21T02:27:36.614Z,7.70
2019-04-21T02:30:54.412Z,7.70
2019-04-21T02:34:00.303Z,7.70
2019-04-21T02:37:17.668Z,7.70
2019-04-21T02:43:19.154Z,7.60
2019-04-21T02:49:38.103Z,7.50
2019-04-21T02:52:37.781Z,7.50
2019-04-21T02:55:38.245Z,7.50
2019-04-21T02:59:09.915Z,7.40
2019-04-21T03:02:35.172Z,7.30
2019-04-21T03:11:53.392Z,7.20
2019-04-21T03:18:13.020Z,7.20
2019-04-21T03:24:29.435Z,7.10
2019-04-21T03:27:41.146Z,7.10
2019-04-21T03:30:52.949Z,7.10
2019-04-21T03:34:18.501Z,7.10
2019-04-21T03:39:45.547Z,7.10
2019-04-21T03:45:51.485Z,7.20
2019-04-21T03:49:04.887Z,7.20
2019-04-21T04:02:05.895Z,7.10
2019-04-21T04:05:36.357Z,7.20
2019-04-21T04:11:38.072Z,7.10
2019-04-21T04:14:46.158Z,7.10
2019-04-21T04:17:40.079Z,7.00
2019-04-21T04:20:51.205Z,7.00
2019-04-21T04:27:07.939Z,7.00
2019-04-21T04:30:19.747Z,6.90
2019-04-21T04:33:21.037Z,7.00
2019-04-21T04:43:08.615Z,7.00
2019-04-21T04:46:08.116Z,7.00
2019-04-21T04:49:24.028Z,7.00
2019-04-21T04:55:29.226Z,7.10
2019-04-21T05:01:46.610Z,7.20
2019-04-21T05:11:28.364Z,7.40
2019-04-21T05:14:11.619Z,7.50
2019-04-21T05:17:17.533Z,7.60
2019-04-21T05:23:11.747Z,7.70
2019-04-21T05:26:09.822Z,7.70
2019-04-21T05:29:20.514Z,7.70
2019-04-21T05:32:59.971Z,7.80
2019-04-21T05:36:12.937Z,7.90
2019-04-21T05:39:36.241Z,7.90
2019-04-21T05:42:39.930Z,8.00
2019-04-21T05:45:54.911Z,8.10
2019-04-21T05:48:59.776Z,8.20
2019-04-21T05:52:06.690Z,8.20
2019-04-21T05:55:16.657Z,8.30
2019-04-21T05:58:12.069Z,8.30
2019-04-21T06:04:48.190Z,8.40
2019-04-21T06:07:41.030Z,8.50
2019-04-21T06:10:50.841Z,8.50
2019-04-21T06:13:55.012Z,8.60
2019-04-21T06:17:01.505Z,8.70
2019-04-21T06:19:59.919Z,8.70
2019-04-21T06:23:14.809Z,8.80
2019-04-21T06:26:26.881Z,8.90
2019-04-21T06:29:24.024Z,9.00
2019-04-21T06:32:45.967Z,9.00
2019-04-21T06:36:20.094Z,9.10
2019-04-21T06:39:05.142Z,9.10
2019-04-21T06:42:05.312Z,9.20
2019-04-21T06:45:12.006Z,9.30
2019-04-21T06:48:18.450Z,9.30
2019-04-21T06:51:27.344Z,9.40
2019-04-21T06:57:35.525Z,9.50
2019-04-21T07:03:49.086Z,9.70
2019-04-21T07:06:54.720Z,9.80
2019-04-21T07:10:05.182Z,10.00
2019-04-21T07:13:03.644Z,10.30
2019-04-21T07:16:17.595Z,10.60
2019-04-21T07:19:22.119Z,10.90
2019-04-21T07:22:27.376Z,11.10
2019-04-21T07:25:33.230Z,11.30
2019-04-21T07:28:40.360Z,11.50
2019-04-21T07:31:47.129Z,11.80
2019-04-21T07:34:49.457Z,11.90
2019-04-21T07:37:54.139Z,12.20
2019-04-21T07:40:54.267Z,12.40
2019-04-21T07:43:57.100Z,12.60
2019-04-21T07:47:11.774Z,12.80
2019-04-21T07:50:24.142Z,13.00
2019-04-21T07:53:38.567Z,13.10
2019-04-21T07:56:24.428Z,13.10
2019-04-21T08:00:02.741Z,13.00
2019-04-21T08:02:51.176Z,13.00
2019-04-21T08:05:58.868Z,13.10
2019-04-21T08:09:01.074Z,13.00
2019-04-21T08:12:04.131Z,13.00
2019-04-21T08:15:24.957Z,13.10
2019-04-21T08:18:21.648Z,13.20
2019-04-21T08:21:28.289Z,13.20
2019-04-21T08:24:34.708Z,13.30
2019-04-21T08:27:41.690Z,13.40
2019-04-21T08:30:43.114Z,13.40
2019-04-21T08:33:58.388Z,13.50
2019-04-21T08:36:57.473Z,13.50
2019-04-21T08:43:09.341Z,13.90
2019-04-21T08:49:20.394Z,14.00
2019-04-21T08:52:36.237Z,14.10
2019-04-21T08:55:49.686Z,14.10
2019-04-21T08:59:13.853Z,14.20
2019-04-21T09:02:34.013Z,14.40
2019-04-21T09:05:32.109Z,14.90
2019-04-21T09:08:39.379Z,15.10
2019-04-21T09:11:40.523Z,15.10
2019-04-21T09:14:50.500Z,15.10
2019-04-21T09:17:50.238Z,15.20
2019-04-21T09:21:05.991Z,15.20
2019-04-21T09:24:11.443Z,15.30
2019-04-21T09:27:10.056Z,15.40
2019-04-21T09:30:04.888Z,15.40
2019-04-21T09:33:07.664Z,15.50
2019-04-21T09:36:15.241Z,15.60
2019-04-21T09:39:20.726Z,15.70
2019-04-21T09:42:33.298Z,15.80
2019-04-21T09:45:30.718Z,15.90
2019-04-21T09:48:46.612Z,16.00
2019-04-21T09:51:41.731Z,16.10
2019-04-21T09:54:56.461Z,16.20
2019-04-21T09:57:57.012Z,16.40
2019-04-21T10:01:10.797Z,16.50
2019-04-21T10:04:05.699Z,16.60
2019-04-21T10:07:23.616Z,16.70
2019-04-21T10:10:17.226Z,16.70
2019-04-21T10:13:21.625Z,16.80
2019-04-21T10:16:40.620Z,16.90
2019-04-21T10:19:46.254Z,17.10
2019-04-21T10:22:50.920Z,17.20
2019-04-21T10:25:56.711Z,17.30
2019-04-21T10:29:08.626Z,17.40
2019-04-21T10:32:07.135Z,17.60
2019-04-21T10:35:11.422Z,17.70
2019-04-21T10:38:25.923Z,17.90
2019-04-21T10:41:21.695Z,18.10
2019-04-21T10:44:27.231Z,18.20
2019-04-21T10:47:33.039Z,18.50
2019-04-21T10:50:37.444Z,18.60
2019-04-21T10:53:43.225Z,18.80
2019-04-21T10:56:49.042Z,19.00
2019-04-21T10:59:55.894Z,19.10
2019-04-21T11:03:19.161Z,19.20
2019-04-21T11:06:24.471Z,19.40
2019-04-21T11:09:29.838Z,19.50
2019-04-21T11:12:36.515Z,19.70
2019-04-21T11:15:41.225Z,19.80
2019-04-21T11:18:46.067Z,20.00
2019-04-21T11:21:50.516Z,20.10
2019-04-21T11:24:54.771Z,20.20
2019-04-21T11:27:59.161Z,20.40
2019-04-21T11:31:04.845Z,20.50
2019-04-21T11:34:09.303Z,20.70
2019-04-21T11:37:16.336Z,20.80
2019-04-21T11:40:22.122Z,21.00
2019-04-21T11:43:26.783Z,21.10
2019-04-21T11:46:31.084Z,21.10
2019-04-21T11:49:35.276Z,21.10
2019-04-21T11:52:40.806Z,21.30
2019-04-21T11:55:48.513Z,21.40
2019-04-21T11:58:51.900Z,21.40
2019-04-21T12:01:57.268Z,21.50
2019-04-21T12:05:01.751Z,21.60
2019-04-21T12:08:18.926Z,21.80
2019-04-21T12:11:11.999Z,21.90
2019-04-21T12:14:16.366Z,22.00
2019-04-21T12:17:20.740Z,22.10
2019-04-21T12:20:26.342Z,22.30
2019-04-21T12:23:32.431Z,22.40
2019-04-21T12:26:37.872Z,22.40
2019-04-21T12:29:43.913Z,22.50
2019-04-21T12:33:02.236Z,22.50
2019-04-21T12:36:06.999Z,22.60
2019-04-21T12:39:12.812Z,22.70
2019-04-21T12:42:18.542Z,22.80
2019-04-21T12:45:24.039Z,22.90
2019-04-21T12:48:29.680Z,23.00
2019-04-21T12:51:35.403Z,23.00
2019-04-21T12:54:39.921Z,23.00
2019-04-21T12:57:45.412Z,23.20
2019-04-21T13:00:51.968Z,23.30
2019-04-21T13:03:57.443Z,23.30
2019-04-21T13:07:03.564Z,23.40
2019-04-21T13:10:10.443Z,23.50
2019-04-21T13:13:14.874Z,23.60
2019-04-21T13:16:19.367Z,23.60
2019-04-21T13:19:23.717Z,23.60
2019-04-21T13:22:28.086Z,23.50
2019-04-21T13:25:32.364Z,23.60
2019-04-21T13:28:37.632Z,23.70
2019-04-21T13:31:42.546Z,23.70
2019-04-21T13:34:47.752Z,23.70
2019-04-21T13:37:52.421Z,23.70
2019-04-21T13:41:32.554Z,23.50
2019-04-21T13:44:26.864Z,23.40
2019-04-21T13:47:32.483Z,23.40
2019-04-21T13:50:37.337Z,23.30
2019-04-21T13:53:41.937Z,23.30
2019-04-21T13:56:47.268Z,23.20
2019-04-21T13:59:53.044Z,23.30
2019-04-21T14:02:58.750Z,23.30
2019-04-21T14:06:04.413Z,23.30
2019-04-21T14:09:13.692Z,23.30
2019-04-21T14:12:19.203Z,23.30
2019-04-21T14:15:24.215Z,23.30
2019-04-21T14:18:28.898Z,23.40
2019-04-21T14:21:33.754Z,23.40
2019-04-21T14:24:38.701Z,23.30
2019-04-21T14:27:45.785Z,23.30
2019-04-21T14:30:52.538Z,23.30
2019-04-21T14:33:58.085Z,23.10
2019-04-21T14:37:04.432Z,23.10
2019-04-21T14:40:14.085Z,23.20
2019-04-21T14:43:16.426Z,23.10
2019-04-21T14:46:39.441Z,23.30
2019-04-21T14:50:22.334Z,23.30
2019-04-21T14:53:29.676Z,23.10
2019-04-21T14:56:35.495Z,22.90
2019-04-21T14:59:40.059Z,22.70
2019-04-21T15:02:45.555Z,22.40
2019-04-21T15:05:51.434Z,22.20
2019-04-21T15:08:57.146Z,22.00
2019-04-21T15:12:02.476Z,21.80
2019-04-21T15:15:07.728Z,21.60
2019-04-21T15:18:12.552Z,21.40
2019-04-21T15:21:17.464Z,21.30
2019-04-21T15:24:22.452Z,21.10
2019-04-21T15:27:27.488Z,20.90
2019-04-21T15:30:36.550Z,20.90
2019-04-21T15:33:41.217Z,20.70
2019-04-21T15:36:46.232Z,20.50
2019-04-21T15:39:52.998Z,20.40
2019-04-21T15:42:57.762Z,20.30
2019-04-21T15:46:02.602Z,20.10
2019-04-21T15:49:07.091Z,20.00
2019-04-21T15:52:11.687Z,19.90
2019-04-21T15:55:34.932Z,19.80
2019-04-21T15:59:04.332Z,19.60
2019-04-21T16:02:26.622Z,19.50
2019-04-21T16:05:31.079Z,19.30
2019-04-21T16:08:35.410Z,19.20
2019-04-21T16:11:39.815Z,19.10
2019-04-21T16:14:44.749Z,19.00
2019-04-21T16:17:49.081Z,18.90
2019-04-21T16:20:53.695Z,18.70
2019-04-21T16:23:58.402Z,18.70
2019-04-21T16:27:06.434Z,18.50
2019-04-21T16:30:10.051Z,18.50
2019-04-21T16:33:15.888Z,18.40
2019-04-21T16:36:21.497Z,18.30
2019-04-21T16:39:27.263Z,18.20
2019-04-21T16:42:32.160Z,18.10
2019-04-21T16:45:37.048Z,18.00
2019-04-21T16:48:42.014Z,17.90
2019-04-21T16:51:48.236Z,17.80
2019-04-21T16:54:58.353Z,17.70
2019-04-21T16:58:23.928Z,17.60
2019-04-21T17:01:31.277Z,17.50
2019-04-21T17:04:36.327Z,17.40
2019-04-21T17:07:40.972Z,17.30
2019-04-21T17:10:59.188Z,17.20
2019-04-21T17:13:51.937Z,17.10
2019-04-21T17:17:18.089Z,17.00
2019-04-21T17:20:17.447Z,16.90
2019-04-21T17:23:09.521Z,16.80
2019-04-21T17:26:15.151Z,16.70
2019-04-21T17:29:20.909Z,16.60
2019-04-21T17:32:32.170Z,16.50
2019-04-21T17:35:33.226Z,16.40
2019-04-21T17:38:37.733Z,16.30
2019-04-21T17:41:56.279Z,16.20
2019-04-21T17:44:48.221Z,16.10
2019-04-21T17:47:59.740Z,15.90
2019-04-21T17:51:17.311Z,15.80
2019-04-21T17:54:36.549Z,15.70
2019-04-21T17:57:55.726Z,15.50
2019-04-21T18:01:10.802Z,15.40
2019-04-21T18:04:10.800Z,15.30
2019-04-21T18:07:18.990Z,15.00
2019-04-21T18:10:25.751Z,14.90
2019-04-21T18:13:19.512Z,14.80
2019-04-21T18:16:30.385Z,14.80
2019-04-21T18:19:30.982Z,14.60
2019-04-21T18:23:09.598Z,14.50
2019-04-21T18:26:24.710Z,14.40
2019-04-21T18:29:18.374Z,14.30
2019-04-21T18:32:26.373Z,14.20
2019-04-21T18:35:50.866Z,14.10
2019-04-21T18:39:32.517Z,14.00
2019-04-21T18:42:42.126Z,13.80
2019-04-21T18:46:21.961Z,13.70
2019-04-21T18:49:24.932Z,13.50
2019-04-21T18:52:48.349Z,13.20
2019-04-21T18:55:46.583Z,13.10
2019-04-21T18:58:46.650Z,13.10
2019-04-21T19:01:58.406Z,13.00
2019-04-21T19:05:04.449Z,12.90
2019-04-21T19:08:20.259Z,12.90
2019-04-21T19:11:31.201Z,12.80
2019-04-21T19:14:36.171Z,12.70
2019-04-21T19:20:56.967Z,12.50
2019-04-21T19:24:08.528Z,12.40
2019-04-21T19:27:08.015Z,12.30
2019-04-21T19:33:14.500Z,12.20
2019-04-21T19:36:07.627Z,12.10
2019-04-21T19:39:23.398Z,12.00
2019-04-21T19:42:30.667Z,11.90
2019-04-21T19:45:36.793Z,11.80
2019-04-21T19:48:55.287Z,11.70
2019-04-21T19:51:48.489Z,11.60
2019-04-21T19:54:48.317Z,11.50
2019-04-21T19:57:52.798Z,11.50
2019-04-21T20:00:57.597Z,11.40
2019-04-21T20:04:02.847Z,11.30
2019-04-21T20:07:22.901Z,11.30
2019-04-21T20:10:35.226Z,11.20
2019-04-21T20:13:59.821Z,11.10
2019-04-21T20:16:46.922Z,11.00
2019-04-21T20:19:34.069Z,10.90
2019-04-21T20:22:43.294Z,10.90
2019-04-21T20:25:49.858Z,10.80
2019-04-21T20:29:04.562Z,10.70
2019-04-21T20:32:28.952Z,10.70
2019-04-21T20:35:36.013Z,10.60
2019-04-21T20:38:27.132Z,10.50
2019-04-21T20:41:32.500Z,10.50
2019-04-21T20:44:42.559Z,10.50
2019-04-21T20:47:39.423Z,10.40
2019-04-21T20:51:00.337Z,10.40
2019-04-21T20:53:59.015Z,10.40
2019-04-21T20:57:21.712Z,10.40
2019-04-21T21:00:13.384Z,10.30
2019-04-21T21:03:24.632Z,10.30
2019-04-21T21:06:26.108Z,10.30
2019-04-21T21:09:29.328Z,10.20
2019-04-21T21:12:46.746Z,10.20
2019-04-21T21:15:52.602Z,10.20
2019-04-21T21:19:08.427Z,10.20
2019-04-21T21:21:53.968Z,10.10
2019-04-21T21:25:03.819Z,10.10
2019-04-21T21:28:03.419Z,10.20
2019-04-21T21:31:16.442Z,10.10
2019-04-21T21:34:28.095Z,10.20
2019-04-21T21:37:32.261Z,10.10
2019-04-21T21:40:29.969Z,10.20
2019-04-21T21:43:24.774Z,10.20
2019-04-21T21:46:44.179Z,10.20
2019-04-21T21:49:48.360Z,10.30
2019-04-21T21:52:52.467Z,10.30
2019-04-21T21:55:46.849Z,10.30
2019-04-21T21:58:51.967Z,10.30
2019-04-21T22:01:58.330Z,10.30
2019-04-21T22:05:09.471Z,10.30
2019-04-21T22:08:10.285Z,10.40
2019-04-21T22:11:15.864Z,10.40
2019-04-21T22:14:26.910Z,10.40
2019-04-21T22:17:41.705Z,10.40
2019-04-21T22:20:50.510Z,10.40
2019-04-21T22:23:49.872Z,10.40
2019-04-21T22:26:45.256Z,10.40
2019-04-21T22:29:56.525Z,10.40
2019-04-21T22:33:02.459Z,10.40
2019-04-21T22:36:18.177Z,10.40
2019-04-21T22:39:30.714Z,10.50
2019-04-21T22:42:22.406Z,10.50
2019-04-21T22:45:23.144Z,10.50
2019-04-21T22:48:28.885Z,10.50
2019-04-21T22:51:38.356Z,10.50
2019-04-21T22:54:42.768Z,10.40
2019-04-21T22:57:49.821Z,10.50
2019-04-21T23:00:57.118Z,10.40
2019-04-21T23:04:02.531Z,10.50
2019-04-21T23:07:10.055Z,10.50
2019-04-21T23:10:11.605Z,10.50
2019-04-21T23:13:20.258Z,10.50
2019-04-21T23:16:29.276Z,10.50
2019-04-21T23:19:42.276Z,10.50
2019-04-21T23:23:03.602Z,10.40
2019-04-21T23:25:53.115Z,10.50
2019-04-21T23:29:07.536Z,10.50
2019-04-21T23:32:10.705Z,10.50
2019-04-21T23:35:09.080Z,10.50
2019-04-21T23:38:06.901Z,10.50
2019-04-21T23:41:11.320Z,10.40
2019-04-21T23:44:19.022Z,10.50
2019-04-21T23:47:34.564Z,10.50
2019-04-21T23:50:37.859Z,10.50
2019-04-21T23:53:33.614Z,10.50
2019-04-21T23:56:42.560Z,10.50
2019-04-21T23:59:48.699Z,10.50
